sensor_id;sensor_type;location;lat;lon;timestamp;pressure;altitude;pressure_sealevel;temperature;humidity
41624;BME280;27319;50.306;18.926;2023-06-10T00:02:58;97946.22;;;17.94;89.64
41624;BME280;27319;50.306;18.926;2023-06-10T00:06:00;97938.66;;;17.96;87.20
41624;BME280;27319;50.306;18.926;2023-06-10T00:09:04;97948.72;;;17.95;86.88
41624;BME280;27319;50.306;18.926;2023-06-10T00:12:26;97946.06;;;17.89;87.01
41624;BME280;27319;50.306;18.926;2023-06-10T00:16:26;97940.03;;;17.87;87.29
41624;BME280;27319;50.306;18.926;2023-06-10T00:20:27;97943.16;;;17.84;87.60
41624;BME280;27319;50.306;18.926;2023-06-10T00:24:28;97952.75;;;17.86;87.40
41624;BME280;27319;50.306;18.926;2023-06-10T00:28:28;97945.38;;;17.93;86.69
41624;BME280;27319;50.306;18.926;2023-06-10T00:32:30;97948.34;;;17.92;87.34
41624;BME280;27319;50.306;18.926;2023-06-10T00:36:10;97950.59;;;17.95;86.51
41624;BME280;27319;50.306;18.926;2023-06-10T00:39:11;97950.81;;;17.93;87.74
41624;BME280;27319;50.306;18.926;2023-06-10T00:42:12;97967.59;;;17.84;87.66
41624;BME280;27319;50.306;18.926;2023-06-10T00:45:13;97962.66;;;17.74;87.57
41624;BME280;27319;50.306;18.926;2023-06-10T00:48:14;97953.03;;;17.78;87.02
41624;BME280;27319;50.306;18.926;2023-06-10T00:51:16;97954.34;;;17.69;87.58
41624;BME280;27319;50.306;18.926;2023-06-10T00:54:17;97957.06;;;17.69;87.46
41624;BME280;27319;50.306;18.926;2023-06-10T00:57:18;97955.59;;;17.67;87.63
41624;BME280;27319;50.306;18.926;2023-06-10T01:00:19;97961.72;;;17.56;89.93
41624;BME280;27319;50.306;18.926;2023-06-10T01:03:20;97960.91;;;17.55;89.08
41624;BME280;27319;50.306;18.926;2023-06-10T01:13:10;97959.78;;;17.38;90.08
41624;BME280;27319;50.306;18.926;2023-06-10T01:16:15;97955.59;;;17.36;90.39
41624;BME280;27319;50.306;18.926;2023-06-10T01:19:16;97951.63;;;17.38;90.72
41624;BME280;27319;50.306;18.926;2023-06-10T01:22:18;97965.38;;;17.43;88.82
41624;BME280;27319;50.306;18.926;2023-06-10T01:25:44;97954.28;;;17.45;89.80
41624;BME280;27319;50.306;18.926;2023-06-10T01:29:35;97963.66;;;17.49;88.00
41624;BME280;27319;50.306;18.926;2023-06-10T01:32:42;97953.03;;;17.47;88.43
41624;BME280;27319;50.306;18.926;2023-06-10T01:35:46;97960.34;;;17.47;88.65
41624;BME280;27319;50.306;18.926;2023-06-10T01:38:50;97954.53;;;17.43;88.69
41624;BME280;27319;50.306;18.926;2023-06-10T01:41:52;97955.34;;;17.44;89.23
41624;BME280;27319;50.306;18.926;2023-06-10T01:44:53;97958.91;;;17.44;88.93
41624;BME280;27319;50.306;18.926;2023-06-10T01:47:54;97962.59;;;17.50;88.94
41624;BME280;27319;50.306;18.926;2023-06-10T01:50:55;97964.53;;;17.43;89.18
41624;BME280;27319;50.306;18.926;2023-06-10T01:53:59;97967.47;;;17.41;89.71
41624;BME280;27319;50.306;18.926;2023-06-10T01:57:01;97967.84;;;17.45;89.49
41624;BME280;27319;50.306;18.926;2023-06-10T02:00:02;97965.50;;;17.55;89.53
41624;BME280;27319;50.306;18.926;2023-06-10T02:03:03;97979.38;;;17.40;91.21
41624;BME280;27319;50.306;18.926;2023-06-10T02:06:05;97984.38;;;17.43;90.23
41624;BME280;27319;50.306;18.926;2023-06-10T02:09:05;97988.34;;;17.34;91.40
41624;BME280;27319;50.306;18.926;2023-06-10T02:12:07;97984.56;;;17.48;90.79
41624;BME280;27319;50.306;18.926;2023-06-10T02:15:08;97986.63;;;17.46;89.05
41624;BME280;27319;50.306;18.926;2023-06-10T02:18:09;97987.09;;;17.37;90.24
41624;BME280;27319;50.306;18.926;2023-06-10T02:21:12;97984.59;;;17.42;91.13
41624;BME280;27319;50.306;18.926;2023-06-10T02:24:13;97983.75;;;17.41;91.52
41624;BME280;27319;50.306;18.926;2023-06-10T02:27:15;97988.75;;;17.44;89.81
41624;BME280;27319;50.306;18.926;2023-06-10T02:30:16;97986.03;;;17.44;91.11
41624;BME280;27319;50.306;18.926;2023-06-10T02:33:17;97984.88;;;17.21;94.75
41624;BME280;27319;50.306;18.926;2023-06-10T02:36:18;97982.09;;;17.34;92.19
41624;BME280;27319;50.306;18.926;2023-06-10T02:39:19;97983.97;;;17.40;90.86
41624;BME280;27319;50.306;18.926;2023-06-10T02:42:20;97986.25;;;17.43;91.87
41624;BME280;27319;50.306;18.926;2023-06-10T02:45:21;97980.34;;;17.52;91.50
41624;BME280;27319;50.306;18.926;2023-06-10T02:48:24;97986.03;;;17.44;90.14
41624;BME280;27319;50.306;18.926;2023-06-10T02:51:25;97994.13;;;17.51;90.59
41624;BME280;27319;50.306;18.926;2023-06-10T02:54:26;97992.91;;;17.47;90.08
41624;BME280;27319;50.306;18.926;2023-06-10T02:57:26;97987.09;;;17.37;92.42
41624;BME280;27319;50.306;18.926;2023-06-10T03:00:27;97992.94;;;17.40;90.66
41624;BME280;27319;50.306;18.926;2023-06-10T03:03:29;97997.09;;;17.43;90.57
41624;BME280;27319;50.306;18.926;2023-06-10T03:06:31;97993.31;;;17.50;91.93
41624;BME280;27319;50.306;18.926;2023-06-10T03:09:34;97992.91;;;17.47;91.22
41624;BME280;27319;50.306;18.926;2023-06-10T03:12:35;97997.50;;;17.46;90.89
41624;BME280;27319;50.306;18.926;2023-06-10T03:15:36;98002.91;;;17.46;91.71
41624;BME280;27319;50.306;18.926;2023-06-10T03:18:37;98000.22;;;17.46;91.89
41624;BME280;27319;50.306;18.926;2023-06-10T03:21:37;98001.91;;;17.41;94.10
41624;BME280;27319;50.306;18.926;2023-06-10T03:24:39;98009.66;;;17.31;94.78
41624;BME280;27319;50.306;18.926;2023-06-10T03:27:44;98012.19;;;17.26;95.66
41624;BME280;27319;50.306;18.926;2023-06-10T03:30:45;98007.56;;;17.39;93.46
41624;BME280;27319;50.306;18.926;2023-06-10T03:33:45;98009.56;;;17.57;92.82
41624;BME280;27319;50.306;18.926;2023-06-10T03:36:46;98003.34;;;17.37;96.03
41624;BME280;27319;50.306;18.926;2023-06-10T03:39:47;98015.81;;;17.51;92.92
41624;BME280;27319;50.306;18.926;2023-06-10T03:42:48;98020.41;;;17.57;92.25
41624;BME280;27319;50.306;18.926;2023-06-10T03:45:49;98019.19;;;17.53;93.35
41624;BME280;27319;50.306;18.926;2023-06-10T03:48:50;98030.44;;;17.56;93.18
41624;BME280;27319;50.306;18.926;2023-06-10T03:51:51;98030.03;;;17.53;93.30
41624;BME280;27319;50.306;18.926;2023-06-10T03:54:52;98027.31;;;17.53;93.50
41624;BME280;27319;50.306;18.926;2023-06-10T03:57:53;98034.13;;;17.62;91.98
41624;BME280;27319;50.306;18.926;2023-06-10T04:00:54;98029.94;;;17.66;92.93
41624;BME280;27319;50.306;18.926;2023-06-10T04:03:55;98023.72;;;17.59;93.53
41624;BME280;27319;50.306;18.926;2023-06-10T04:06:56;98017.84;;;17.62;96.10
41624;BME280;27319;50.306;18.926;2023-06-10T04:09:57;98016.16;;;17.67;94.59
41624;BME280;27319;50.306;18.926;2023-06-10T04:12:58;98023.03;;;17.70;93.59
41624;BME280;27319;50.306;18.926;2023-06-10T04:16:00;98022.84;;;17.71;92.51
41624;BME280;27319;50.306;18.926;2023-06-10T04:19:01;98026.81;;;17.69;93.85
41624;BME280;27319;50.306;18.926;2023-06-10T04:22:02;98027.81;;;17.74;92.34
41624;BME280;27319;50.306;18.926;2023-06-10T04:25:04;98039.16;;;17.65;92.63
41624;BME280;27319;50.306;18.926;2023-06-10T04:28:05;98034.97;;;17.69;93.55
41624;BME280;27319;50.306;18.926;2023-06-10T04:31:06;98036.66;;;17.63;94.25
41624;BME280;27319;50.306;18.926;2023-06-10T04:34:07;98043.72;;;17.71;93.05
41624;BME280;27319;50.306;18.926;2023-06-10T04:37:08;98037.03;;;17.67;95.11
41624;BME280;27319;50.306;18.926;2023-06-10T04:40:09;98037.81;;;17.74;96.42
41624;BME280;27319;50.306;18.926;2023-06-10T04:43:11;98029.75;;;17.67;97.14
41624;BME280;27319;50.306;18.926;2023-06-10T04:46:12;98031.97;;;17.77;93.78
41624;BME280;27319;50.306;18.926;2023-06-10T04:49:14;98031.06;;;17.89;93.12
41624;BME280;27319;50.306;18.926;2023-06-10T04:52:15;98028.09;;;17.66;95.35
41624;BME280;27319;50.306;18.926;2023-06-10T04:55:16;98030.41;;;17.63;94.35
41624;BME280;27319;50.306;18.926;2023-06-10T04:58:17;98030.81;;;17.60;96.33
41624;BME280;27319;50.306;18.926;2023-06-10T05:01:18;98034.50;;;17.72;93.89
41624;BME280;27319;50.306;18.926;2023-06-10T05:04:19;98034.59;;;17.90;93.88
41624;BME280;27319;50.306;18.926;2023-06-10T05:07:20;98040.38;;;18.00;93.56
41624;BME280;27319;50.306;18.926;2023-06-10T05:10:21;98030.78;;;17.97;95.57
41624;BME280;27319;50.306;18.926;2023-06-10T05:13:22;98042.03;;;18.01;94.74
41624;BME280;27319;50.306;18.926;2023-06-10T05:16:23;98042.91;;;17.95;96.13
41624;BME280;27319;50.306;18.926;2023-06-10T05:19:24;98036.88;;;17.93;96.03
41624;BME280;27319;50.306;18.926;2023-06-10T05:22:24;98041.66;;;17.97;95.91
41624;BME280;27319;50.306;18.926;2023-06-10T05:25:26;98044.72;;;18.07;95.32
41624;BME280;27319;50.306;18.926;2023-06-10T05:28:27;98044.34;;;18.04;96.71
41624;BME280;27319;50.306;18.926;2023-06-10T05:31:28;98048.72;;;18.05;96.70
41624;BME280;27319;50.306;18.926;2023-06-10T05:34:30;98039.31;;;18.01;97.28
41624;BME280;27319;50.306;18.926;2023-06-10T05:37:33;98055.53;;;18.14;95.65
41624;BME280;27319;50.306;18.926;2023-06-10T05:40:34;98060.53;;;18.17;94.47
41624;BME280;27319;50.306;18.926;2023-06-10T05:43:35;98060.88;;;18.27;93.36
41624;BME280;27319;50.306;18.926;2023-06-10T05:46:36;98055.88;;;18.24;93.38
41624;BME280;27319;50.306;18.926;2023-06-10T05:49:37;98061.41;;;18.11;96.91
41624;BME280;27319;50.306;18.926;2023-06-10T05:52:37;98065.59;;;18.07;97.34
41624;BME280;27319;50.306;18.926;2023-06-10T05:55:45;98068.22;;;17.95;98.10
41624;BME280;27319;50.306;18.926;2023-06-10T05:58:45;98066.59;;;17.88;97.54
41624;BME280;27319;50.306;18.926;2023-06-10T06:01:46;98077.34;;;18.01;96.98
41624;BME280;27319;50.306;18.926;2023-06-10T06:04:47;98071.97;;;17.94;98.99
41624;BME280;27319;50.306;18.926;2023-06-10T06:07:48;98077.94;;;18.03;97.94
41624;BME280;27319;50.306;18.926;2023-06-10T06:10:50;98078.13;;;18.08;99.26
41624;BME280;27319;50.306;18.926;2023-06-10T06:13:51;98082.09;;;18.12;97.67
41624;BME280;27319;50.306;18.926;2023-06-10T06:16:51;98081.22;;;18.18;96.31
41624;BME280;27319;50.306;18.926;2023-06-10T06:19:52;98085.03;;;18.41;96.86
41624;BME280;27319;50.306;18.926;2023-06-10T06:22:53;98087.59;;;18.30;97.00
41624;BME280;27319;50.306;18.926;2023-06-10T06:25:55;98091.16;;;18.30;97.11
41624;BME280;27319;50.306;18.926;2023-06-10T06:28:55;98086.34;;;18.26;96.96
41624;BME280;27319;50.306;18.926;2023-06-10T06:31:56;98093.78;;;18.12;96.95
41624;BME280;27319;50.306;18.926;2023-06-10T06:34:57;98099.84;;;18.14;96.63
41624;BME280;27319;50.306;18.926;2023-06-10T06:37:59;98102.25;;;18.29;96.09
41624;BME280;27319;50.306;18.926;2023-06-10T06:41:00;98108.94;;;18.33;95.69
41624;BME280;27319;50.306;18.926;2023-06-10T06:44:06;98105.56;;;18.31;97.90
41624;BME280;27319;50.306;18.926;2023-06-10T06:47:07;98115.16;;;18.40;97.24
41624;BME280;27319;50.306;18.926;2023-06-10T06:50:09;98119.41;;;18.54;97.39
41624;BME280;27319;50.306;18.926;2023-06-10T06:53:10;98115.44;;;18.56;96.84
41624;BME280;27319;50.306;18.926;2023-06-10T06:56:12;98123.94;;;18.66;95.09
41624;BME280;27319;50.306;18.926;2023-06-10T06:59:12;98131.41;;;18.71;95.90
41624;BME280;27319;50.306;18.926;2023-06-10T07:02:35;98133.72;;;18.74;97.21
41624;BME280;27319;50.306;18.926;2023-06-10T07:06:35;98138.09;;;18.75;97.44
41624;BME280;27319;50.306;18.926;2023-06-10T07:10:36;98138.03;;;18.81;96.34
41624;BME280;27319;50.306;18.926;2023-06-10T07:14:37;98137.66;;;18.78;94.53
41624;BME280;27319;50.306;18.926;2023-06-10T07:18:37;98136.53;;;18.61;94.62
41624;BME280;27319;50.306;18.926;2023-06-10T07:22:38;98144.28;;;18.57;95.32
41624;BME280;27319;50.306;18.926;2023-06-10T07:26:39;98139.50;;;18.53;96.76
41624;BME280;27319;50.306;18.926;2023-06-10T07:30:40;98139.34;;;18.72;95.76
41624;BME280;27319;50.306;18.926;2023-06-10T07:34:40;98149.91;;;18.87;95.60
41624;BME280;27319;50.306;18.926;2023-06-10T07:38:41;98152.97;;;18.97;95.00
41624;BME280;27319;50.306;18.926;2023-06-10T07:42:41;98139.97;;;19.17;95.16
41624;BME280;27319;50.306;18.926;2023-06-10T07:46:42;98143.38;;;19.12;93.29
41624;BME280;27319;50.306;18.926;2023-06-10T07:50:43;98147.16;;;19.11;94.63
41624;BME280;27319;50.306;18.926;2023-06-10T07:54:44;98152.22;;;19.08;94.29
41624;BME280;27319;50.306;18.926;2023-06-10T07:58:13;98149.34;;;19.03;92.81
41624;BME280;27319;50.306;18.926;2023-06-10T08:01:13;98157.50;;;19.03;94.78
41624;BME280;27319;50.306;18.926;2023-06-10T08:04:14;98154.78;;;19.03;92.30
41624;BME280;27319;50.306;18.926;2023-06-10T08:07:15;98144.66;;;19.10;94.25
41624;BME280;27319;50.306;18.926;2023-06-10T08:10:17;98158.16;;;19.23;92.38
41624;BME280;27319;50.306;18.926;2023-06-10T08:13:17;98157.13;;;19.24;91.54
41624;BME280;27319;50.306;18.926;2023-06-10T08:16:18;98163.38;;;19.24;90.78
41624;BME280;27319;50.306;18.926;2023-06-10T08:19:19;98155.44;;;19.23;93.02
41624;BME280;27319;50.306;18.926;2023-06-10T08:22:21;98170.75;;;19.42;93.55
41624;BME280;27319;50.306;18.926;2023-06-10T08:25:21;98180.41;;;19.38;92.59
41624;BME280;27319;50.306;18.926;2023-06-10T08:28:22;98174.81;;;19.33;93.28
41624;BME280;27319;50.306;18.926;2023-06-10T08:31:23;98178.28;;;19.40;92.52
41624;BME280;27319;50.306;18.926;2023-06-10T08:34:24;98167.72;;;19.50;92.74
41624;BME280;27319;50.306;18.926;2023-06-10T08:37:25;98177.72;;;19.56;89.17
41624;BME280;27319;50.306;18.926;2023-06-10T08:40:26;98175.59;;;19.58;92.16
41624;BME280;27319;50.306;18.926;2023-06-10T08:43:44;98177.03;;;19.60;92.69
41624;BME280;27319;50.306;18.926;2023-06-10T08:46:47;98184.38;;;19.78;90.55
41624;BME280;27319;50.306;18.926;2023-06-10T08:49:49;98181.72;;;19.89;89.10
41624;BME280;27319;50.306;18.926;2023-06-10T08:52:54;98192.06;;;19.81;92.10
41624;BME280;27319;50.306;18.926;2023-06-10T08:55:59;98193.44;;;19.90;91.12
41624;BME280;27319;50.306;18.926;2023-06-10T08:59:01;98188.53;;;19.98;91.98
41624;BME280;27319;50.306;18.926;2023-06-10T09:02:02;98194.94;;;20.04;90.68
41624;BME280;27319;50.306;18.926;2023-06-10T09:05:05;98194.19;;;20.15;90.10
41624;BME280;27319;50.306;18.926;2023-06-10T09:08:06;98197.81;;;20.27;90.93
41624;BME280;27319;50.306;18.926;2023-06-10T09:11:08;98194.66;;;20.41;89.77
41624;BME280;27319;50.306;18.926;2023-06-10T09:14:09;98196.72;;;20.46;88.57
41624;BME280;27319;50.306;18.926;2023-06-10T09:17:30;98193.81;;;20.59;88.09
41624;BME280;27319;50.306;18.926;2023-06-10T09:21:31;98197.09;;;20.49;87.28
41624;BME280;27319;50.306;18.926;2023-06-10T09:25:35;98205.22;;;20.79;89.56
41624;BME280;27319;50.306;18.926;2023-06-10T09:29:51;98200.84;;;20.78;86.31
41624;BME280;27319;50.306;18.926;2023-06-10T09:33:48;98210.38;;;20.87;86.51
41624;BME280;27319;50.306;18.926;2023-06-10T09:37:52;98196.88;;;20.92;86.14
41624;BME280;27319;50.306;18.926;2023-06-10T09:41:52;98205.38;;;20.84;86.70
41624;BME280;27319;50.306;18.926;2023-06-10T09:45:55;98202.03;;;20.82;84.61
41624;BME280;27319;50.306;18.926;2023-06-10T09:49:18;98196.06;;;21.14;86.10
41624;BME280;27319;50.306;18.926;2023-06-10T09:52:26;98202.16;;;21.51;85.47
41624;BME280;27319;50.306;18.926;2023-06-10T09:55:27;98208.22;;;21.76;85.67
41624;BME280;27319;50.306;18.926;2023-06-10T09:58:37;98199.16;;;21.64;82.51
41624;BME280;27319;50.306;18.926;2023-06-10T10:01:59;98196.44;;;21.64;80.59
41624;BME280;27319;50.306;18.926;2023-06-10T10:05:59;98193.84;;;21.69;81.56
41624;BME280;27319;50.306;18.926;2023-06-10T10:10:00;98198.25;;;21.70;81.25
41624;BME280;27319;50.306;18.926;2023-06-10T10:14:01;98186.69;;;21.91;81.04
41624;BME280;27319;50.306;18.926;2023-06-10T10:18:04;98201.44;;;21.90;79.57
41624;BME280;27319;50.306;18.926;2023-06-10T10:22:08;98201.66;;;21.65;77.49
41624;BME280;27319;50.306;18.926;2023-06-10T10:26:09;98206.41;;;21.47;75.91
41624;BME280;27319;50.306;18.926;2023-06-10T10:30:09;98198.09;;;21.65;78.04
41624;BME280;27319;50.306;18.926;2023-06-10T10:34:16;98202.88;;;21.69;76.15
41624;BME280;27319;50.306;18.926;2023-06-10T10:38:16;98198.69;;;21.67;76.78
41624;BME280;27319;50.306;18.926;2023-06-10T10:42:16;98184.69;;;21.63;79.35
41624;BME280;27319;50.306;18.926;2023-06-10T10:46:17;98184.75;;;22.03;79.19
41624;BME280;27319;50.306;18.926;2023-06-10T10:50:19;98182.97;;;22.48;76.41
41624;BME280;27319;50.306;18.926;2023-06-10T10:54:32;98173.34;;;23.06;76.18
41624;BME280;27319;50.306;18.926;2023-06-10T10:58:32;98180.22;;;23.09;75.17
41624;BME280;27319;50.306;18.926;2023-06-10T11:06:19;98173.56;;;22.88;72.47
41624;BME280;27319;50.306;18.926;2023-06-10T11:10:15;98171.75;;;22.94;72.13
41624;BME280;27319;50.306;18.926;2023-06-10T11:21:59;98158.66;;;23.12;73.58
41624;BME280;27319;50.306;18.926;2023-06-10T11:33:55;98162.31;;;24.10;71.79
41624;BME280;27319;50.306;18.926;2023-06-10T11:37:36;98157.16;;;24.62;71.90
41624;BME280;27319;50.306;18.926;2023-06-10T11:40:36;98152.91;;;24.54;69.20
41624;BME280;27319;50.306;18.926;2023-06-10T11:43:46;98162.84;;;24.82;68.65
41624;BME280;27319;50.306;18.926;2023-06-10T11:46:48;98170.78;;;25.10;66.33
41624;BME280;27319;50.306;18.926;2023-06-10T11:49:56;98160.81;;;24.72;62.86
41624;BME280;27319;50.306;18.926;2023-06-10T11:52:57;98173.25;;;24.80;63.12
41624;BME280;27319;50.306;18.926;2023-06-10T11:55:59;98167.66;;;24.96;65.50
41624;BME280;27319;50.306;18.926;2023-06-10T11:59:06;98156.34;;;24.93;64.31
41624;BME280;27319;50.306;18.926;2023-06-10T12:02:15;98138.84;;;24.72;61.97
41624;BME280;27319;50.306;18.926;2023-06-10T12:05:16;98155.28;;;24.99;64.19
41624;BME280;27319;50.306;18.926;2023-06-10T12:08:20;98151.53;;;25.05;62.14
41624;BME280;27319;50.306;18.926;2023-06-10T12:11:20;98158.78;;;25.21;62.41
41624;BME280;27319;50.306;18.926;2023-06-10T12:14:50;98155.44;;;25.14;63.01
41624;BME280;27319;50.306;18.926;2023-06-10T12:18:03;98164.81;;;25.49;59.35
41624;BME280;27319;50.306;18.926;2023-06-10T12:24:18;98148.25;;;25.08;64.67
41624;BME280;27319;50.306;18.926;2023-06-10T12:27:19;98153.13;;;25.32;61.96
41624;BME280;27319;50.306;18.926;2023-06-10T12:30:24;98155.03;;;25.32;61.45
41624;BME280;27319;50.306;18.926;2023-06-10T12:33:27;98144.94;;;25.89;62.69
41624;BME280;27319;50.306;18.926;2023-06-10T12:36:27;98145.63;;;26.06;60.44
41624;BME280;27319;50.306;18.926;2023-06-10T12:39:28;98153.41;;;26.29;60.71
41624;BME280;27319;50.306;18.926;2023-06-10T12:42:30;98143.34;;;26.64;63.68
41624;BME280;27319;50.306;18.926;2023-06-10T12:45:32;98151.38;;;27.11;60.68
41624;BME280;27319;50.306;18.926;2023-06-10T12:48:34;98140.63;;;26.89;55.57
41624;BME280;27319;50.306;18.926;2023-06-10T12:51:35;98145.63;;;27.22;58.12
41624;BME280;27319;50.306;18.926;2023-06-10T12:54:37;98148.06;;;27.14;55.41
41624;BME280;27319;50.306;18.926;2023-06-10T12:57:47;98147.22;;;26.73;55.75
41624;BME280;27319;50.306;18.926;2023-06-10T13:01:08;98146.44;;;27.28;58.75
41624;BME280;27319;50.306;18.926;2023-06-10T13:05:09;98158.00;;;27.40;57.74
41624;BME280;27319;50.306;18.926;2023-06-10T13:09:09;98152.50;;;27.20;56.23
41624;BME280;27319;50.306;18.926;2023-06-10T13:13:11;98141.44;;;27.60;56.20
41624;BME280;27319;50.306;18.926;2023-06-10T13:17:11;98147.75;;;27.65;52.17
41624;BME280;27319;50.306;18.926;2023-06-10T13:21:12;98129.25;;;27.86;54.20
41624;BME280;27319;50.306;18.926;2023-06-10T13:25:13;98124.81;;;27.90;55.38
41624;BME280;27319;50.306;18.926;2023-06-10T13:28:21;98125.72;;;26.60;54.08
41624;BME280;27319;50.306;18.926;2023-06-10T13:31:22;98122.72;;;27.02;54.19
41624;BME280;27319;50.306;18.926;2023-06-10T13:34:23;98132.09;;;27.36;55.87
41624;BME280;27319;50.306;18.926;2023-06-10T13:37:24;98124.94;;;26.90;53.42
41624;BME280;27319;50.306;18.926;2023-06-10T13:40:25;98132.06;;;27.51;55.96
41624;BME280;27319;50.306;18.926;2023-06-10T13:43:26;98133.72;;;27.52;55.00
41624;BME280;27319;50.306;18.926;2023-06-10T13:46:27;98124.88;;;27.60;53.58
41624;BME280;27319;50.306;18.926;2023-06-10T13:49:28;98125.41;;;27.82;54.07
41624;BME280;27319;50.306;18.926;2023-06-10T13:52:29;98120.44;;;27.73;53.61
41624;BME280;27319;50.306;18.926;2023-06-10T13:55:30;98123.81;;;27.06;55.85
41624;BME280;27319;50.306;18.926;2023-06-10T13:58:31;98116.91;;;26.78;55.01
41624;BME280;27319;50.306;18.926;2023-06-10T14:01:32;98112.25;;;26.99;57.76
41624;BME280;27319;50.306;18.926;2023-06-10T14:04:33;98120.75;;;26.67;55.74
41624;BME280;27319;50.306;18.926;2023-06-10T14:07:34;98125.81;;;26.14;56.86
41624;BME280;27319;50.306;18.926;2023-06-10T14:10:35;98128.41;;;25.79;57.92
41624;BME280;27319;50.306;18.926;2023-06-10T14:13:56;98134.72;;;24.96;58.69
41624;BME280;27319;50.306;18.926;2023-06-10T14:17:57;98132.53;;;24.45;57.50
41624;BME280;27319;50.306;18.926;2023-06-10T14:21:58;98140.00;;;23.85;56.51
41624;BME280;27319;50.306;18.926;2023-06-10T14:25:58;98139.81;;;22.99;56.50
41624;BME280;27319;50.306;18.926;2023-06-10T14:29:59;98130.47;;;22.95;57.27
41624;BME280;27319;50.306;18.926;2023-06-10T14:34:00;98129.53;;;22.90;59.81
41624;BME280;27319;50.306;18.926;2023-06-10T14:38:00;98124.28;;;22.88;60.77
41624;BME280;27319;50.306;18.926;2023-06-10T14:42:01;98119.34;;;22.85;58.28
41624;BME280;27319;50.306;18.926;2023-06-10T14:46:02;98114.91;;;22.68;63.81
41624;BME280;27319;50.306;18.926;2023-06-10T14:50:03;98120.38;;;22.68;63.63
41624;BME280;27319;50.306;18.926;2023-06-10T14:54:03;98118.66;;;22.62;63.95
41624;BME280;27319;50.306;18.926;2023-06-10T14:58:04;98118.28;;;22.42;64.08
41624;BME280;27319;50.306;18.926;2023-06-10T15:02:05;98136.75;;;22.35;65.68
41624;BME280;27319;50.306;18.926;2023-06-10T15:06:06;98132.63;;;22.21;66.63
41624;BME280;27319;50.306;18.926;2023-06-10T15:10:07;98134.38;;;22.27;68.56
41624;BME280;27319;50.306;18.926;2023-06-10T15:14:07;98143.03;;;22.35;68.34
41624;BME280;27319;50.306;18.926;2023-06-10T15:17:48;98142.75;;;22.20;69.24
41624;BME280;27319;50.306;18.926;2023-06-10T15:20:49;98144.53;;;22.15;70.19
41624;BME280;27319;50.306;18.926;2023-06-10T15:23:50;98149.63;;;21.95;69.45
41624;BME280;27319;50.306;18.926;2023-06-10T15:26:51;98152.63;;;22.10;70.04
41624;BME280;27319;50.306;18.926;2023-06-10T15:29:52;98149.66;;;22.11;71.08
41624;BME280;27319;50.306;18.926;2023-06-10T15:32:53;98152.44;;;22.28;70.58
41624;BME280;27319;50.306;18.926;2023-06-10T15:35:54;98160.72;;;22.05;71.67
41624;BME280;27319;50.306;18.926;2023-06-10T15:39:02;98148.47;;;22.19;71.85
41624;BME280;27319;50.306;18.926;2023-06-10T15:42:04;98152.53;;;22.05;71.69
41624;BME280;27319;50.306;18.926;2023-06-10T15:45:05;98150.63;;;22.05;71.91
41624;BME280;27319;50.306;18.926;2023-06-10T15:48:07;98149.00;;;21.93;72.86
41624;BME280;27319;50.306;18.926;2023-06-10T15:51:07;98151.38;;;22.01;72.79
41624;BME280;27319;50.306;18.926;2023-06-10T15:54:08;98149.00;;;21.93;73.56
41624;BME280;27319;50.306;18.926;2023-06-10T15:57:09;98149.78;;;22.05;72.80
41624;BME280;27319;50.306;18.926;2023-06-10T16:00:11;98157.28;;;22.09;72.59
41624;BME280;27319;50.306;18.926;2023-06-10T16:03:32;98150.13;;;22.08;72.99
41624;BME280;27319;50.306;18.926;2023-06-10T16:07:32;98146.47;;;22.03;73.77
41624;BME280;27319;50.306;18.926;2023-06-10T16:11:13;98149.56;;;22.06;73.30
41624;BME280;27319;50.306;18.926;2023-06-10T16:14:14;98151.22;;;22.07;74.14
41624;BME280;27319;50.306;18.926;2023-06-10T16:17:15;98147.16;;;22.10;73.95
41624;BME280;27319;50.306;18.926;2023-06-10T16:20:16;98153.25;;;22.12;73.78
41624;BME280;27319;50.306;18.926;2023-06-10T16:23:17;98162.47;;;22.22;73.76
41624;BME280;27319;50.306;18.926;2023-06-10T16:26:18;98164.22;;;22.28;73.72
41624;BME280;27319;50.306;18.926;2023-06-10T16:29:19;98178.81;;;22.34;73.37
41624;BME280;27319;50.306;18.926;2023-06-10T16:32:20;98177.06;;;22.28;73.49
41624;BME280;27319;50.306;18.926;2023-06-10T16:35:21;98174.13;;;22.18;74.82
41624;BME280;27319;50.306;18.926;2023-06-10T16:38:22;98174.16;;;22.06;74.40
41624;BME280;27319;50.306;18.926;2023-06-10T16:41:23;98190.00;;;22.04;73.95
41624;BME280;27319;50.306;18.926;2023-06-10T16:44:24;98205.94;;;21.96;74.11
41624;BME280;27319;50.306;18.926;2023-06-10T16:47:25;98212.47;;;21.95;74.48
41624;BME280;27319;50.306;18.926;2023-06-10T16:50:25;98205.81;;;21.91;74.79
41624;BME280;27319;50.306;18.926;2023-06-10T16:53:26;98205.31;;;21.94;74.91
41624;BME280;27319;50.306;18.926;2023-06-10T16:56:27;98209.25;;;21.98;74.49
41624;BME280;27319;50.306;18.926;2023-06-10T16:59:28;98210.31;;;21.85;74.36
41624;BME280;27319;50.306;18.926;2023-06-10T17:02:29;98214.41;;;21.83;73.63
41624;BME280;27319;50.306;18.926;2023-06-10T17:05:30;98216.28;;;21.71;74.00
41624;BME280;27319;50.306;18.926;2023-06-10T17:08:31;98224.00;;;21.85;74.39
41624;BME280;27319;50.306;18.926;2023-06-10T17:11:32;98218.44;;;21.80;74.30
41624;BME280;27319;50.306;18.926;2023-06-10T17:14:33;98223.66;;;21.82;74.32
41624;BME280;27319;50.306;18.926;2023-06-10T17:17:34;98224.69;;;21.58;74.69
41624;BME280;27319;50.306;18.926;2023-06-10T17:20:35;98224.97;;;21.68;75.06
41624;BME280;27319;50.306;18.926;2023-06-10T17:23:36;98221.03;;;21.64;75.96
41624;BME280;27319;50.306;18.926;2023-06-10T17:26:37;98219.59;;;21.61;76.79
41624;BME280;27319;50.306;18.926;2023-06-10T17:29:38;98215.94;;;21.56;76.26
41624;BME280;27319;50.306;18.926;2023-06-10T17:32:40;98220.44;;;21.62;76.31